Terminal Aerodrome Forecast
Issued by NWS

Home | Current Version | Previous Version | Graphics & Text | Print | Product List | Glossary On
Versions: 1 2 3 4 5 6 7 8 9 10 11 12 13 14 15 16 17 18 19 20
000
FTUS43 KBIS 261100
TAFMOT
TAF
KMOT 261127Z 2612/2712 36008KT 3SM -SN BR SCT015 OVC022
      TEMPO 2612/2614 1 1/2SM -SN BR OVC015
     FM261400 01008KT P6SM BKN030 OVC070
     FM262100 04007KT P6SM SCT035
     FM270300 11005KT P6SM SCT250
     FM270800 17006KT P6SM SCT025=

USA.gov is the U.S. government's official web portal to all federal, state and local government web resources and services.